ASA4717 PANC-PAJN
Flight info
| Callsign | ASA4717 |
|---|---|
| Flight time | 1h 13m |
| Altitude | 33000 |
| Route | JOH J501 YAK FAKES ASORT |
| Aircraft | B739/M-SDE2E3FGHIRWXY/LB1 |
Departure
| Time | 2026-04-24 00:26 |
|---|---|
| Airport | Ted Stevens Anchorage International Airport (PANC) |
Arrival
| Time | 2026-04-24 01:40 |
|---|---|
| Airport | Juneau International Airport (PAJN) |
| Time | Latitude | Longitude | Altitude | Speed | Heading |
|---|---|---|---|---|---|
| 2026-04-24 00:07 | 61.17247 | -149.98338 | 156 ft | 0 kts | 322° |
| 2026-04-24 00:17 | 61.17243 | -149.98332 | 156 ft | 2 kts | 322° |
| 2026-04-24 00:17 | 61.17231 | -149.98314 | 156 ft | 2 kts | 321° |
| 2026-04-24 00:18 | 61.17220 | -149.98294 | 156 ft | 2 kts | 322° |
| 2026-04-24 00:18 | 61.17209 | -149.98276 | 156 ft | 2 kts | 321° |
| 2026-04-24 00:18 | 61.17197 | -149.98256 | 156 ft | 2 kts | 322° |
| 2026-04-24 00:18 | 61.17185 | -149.98238 | 156 ft | 2 kts | 329° |
| 2026-04-24 00:19 | 61.17171 | -149.98227 | 156 ft | 2 kts | 353° |
| 2026-04-24 00:19 | 61.17155 | -149.98228 | 156 ft | 2 kts | 12° |
| 2026-04-24 00:19 | 61.17141 | -149.98239 | 156 ft | 2 kts | 31° |
| 2026-04-24 00:19 | 61.17130 | -149.98259 | 156 ft | 2 kts | 51° |
| 2026-04-24 00:20 | 61.17123 | -149.98286 | 156 ft | 2 kts | 71° |
| 2026-04-24 00:20 | 61.17120 | -149.98312 | 156 ft | 0 kts | 88° |
| 2026-04-24 00:20 | 61.17120 | -149.98325 | 156 ft | 1 kts | 91° |
| 2026-04-24 00:20 | 61.17120 | -149.98326 | 156 ft | 0 kts | 91° |
| 2026-04-24 00:22 | 61.17120 | -149.98308 | 156 ft | 3 kts | 91° |
| 2026-04-24 00:22 | 61.17120 | -149.98224 | 156 ft | 7 kts | 90° |
| 2026-04-24 00:22 | 61.17120 | -149.98080 | 156 ft | 12 kts | 90° |
| 2026-04-24 00:22 | 61.17119 | -149.97870 | 156 ft | 16 kts | 90° |
| 2026-04-24 00:23 | 61.17120 | -149.97623 | 156 ft | 18 kts | 89° |
| 2026-04-24 00:23 | 61.17120 | -149.97345 | 156 ft | 20 kts | 89° |
| 2026-04-24 00:23 | 61.17123 | -149.97046 | 156 ft | 21 kts | 89° |
| 2026-04-24 00:23 | 61.17123 | -149.96718 | 156 ft | 23 kts | 90° |
| 2026-04-24 00:24 | 61.17125 | -149.96368 | 156 ft | 23 kts | 90° |
| 2026-04-24 00:24 | 61.17125 | -149.96039 | 156 ft | 22 kts | 90° |
| 2026-04-24 00:24 | 61.17125 | -149.95712 | 156 ft | 22 kts | 89° |
| 2026-04-24 00:24 | 61.17125 | -149.95381 | 156 ft | 23 kts | 91° |
| 2026-04-24 00:25 | 61.17123 | -149.95042 | 156 ft | 22 kts | 90° |
| 2026-04-24 00:25 | 61.17085 | -149.94844 | 156 ft | 13 kts | 169° |
| 2026-04-24 00:25 | 61.17003 | -149.94893 | 156 ft | 12 kts | 222° |
| 2026-04-24 00:25 | 61.16981 | -149.95252 | 156 ft | 57 kts | 269° |
| 2026-04-24 00:26 | 61.16980 | -149.96602 | 156 ft | 126 kts | 270° |
| 2026-04-24 00:26 | 61.16979 | -149.98816 | 206 ft | 176 kts | 269° |
| 2026-04-24 00:26 | 61.16983 | -150.01312 | 884 ft | 179 kts | 268° |
| 2026-04-24 00:26 | 61.16948 | -150.03995 | 1406 ft | 195 kts | 265° |
| 2026-04-24 00:27 | 61.16871 | -150.06874 | 1930 ft | 206 kts | 264° |
| 2026-04-24 00:27 | 61.16801 | -150.09914 | 2351 ft | 218 kts | 265° |
| 2026-04-24 00:27 | 61.16607 | -150.13139 | 2722 ft | 232 kts | 247° |
| 2026-04-24 00:27 | 61.15604 | -150.15797 | 3133 ft | 241 kts | 210° |
| 2026-04-24 00:28 | 61.14066 | -150.17313 | 3677 ft | 251 kts | 198° |
| 2026-04-24 00:28 | 61.12371 | -150.18149 | 4358 ft | 253 kts | 176° |
| 2026-04-24 00:28 | 61.10758 | -150.17044 | 5128 ft | 251 kts | 142° |
| 2026-04-24 00:28 | 61.09670 | -150.14208 | 5892 ft | 255 kts | 120° |
| 2026-04-24 00:29 | 61.08996 | -150.10872 | 6684 ft | 258 kts | 111° |
| 2026-04-24 00:29 | 61.08459 | -150.07314 | 7399 ft | 263 kts | 110° |
| 2026-04-24 00:29 | 61.07935 | -150.03716 | 8101 ft | 267 kts | 111° |
| 2026-04-24 00:29 | 61.07372 | -150.00044 | 8830 ft | 270 kts | 111° |
| 2026-04-24 00:30 | 61.06794 | -149.96373 | 9453 ft | 276 kts | 112° |
| 2026-04-24 00:30 | 61.06196 | -149.92627 | 10153 ft | 279 kts | 112° |
| 2026-04-24 00:30 | 61.05571 | -149.88762 | 10559 ft | 293 kts | 113° |
| 2026-04-24 00:30 | 61.04909 | -149.84668 | 10908 ft | 308 kts | 113° |
| 2026-04-24 00:31 | 61.04215 | -149.80389 | 11229 ft | 324 kts | 112° |
| 2026-04-24 00:31 | 61.03487 | -149.75900 | 11528 ft | 340 kts | 112° |
| 2026-04-24 00:31 | 61.02724 | -149.71190 | 11858 ft | 354 kts | 112° |
| 2026-04-24 00:31 | 61.01931 | -149.66295 | 12115 ft | 370 kts | 112° |
| 2026-04-24 00:32 | 61.01099 | -149.61153 | 12393 ft | 384 kts | 112° |
| 2026-04-24 00:32 | 61.00250 | -149.55911 | 12833 ft | 394 kts | 112° |
| 2026-04-24 00:32 | 60.99383 | -149.50554 | 13403 ft | 398 kts | 112° |
| 2026-04-24 00:32 | 60.98510 | -149.45171 | 14152 ft | 400 kts | 112° |
| 2026-04-24 00:33 | 60.97630 | -149.39760 | 14830 ft | 401 kts | 112° |
| 2026-04-24 00:33 | 60.96739 | -149.34308 | 15345 ft | 406 kts | 114° |
| 2026-04-24 00:33 | 60.95830 | -149.28769 | 15916 ft | 410 kts | 114° |
| 2026-04-24 00:33 | 60.94916 | -149.23207 | 16371 ft | 417 kts | 114° |
| 2026-04-24 00:34 | 60.93987 | -149.17578 | 16904 ft | 420 kts | 114° |
| 2026-04-24 00:34 | 60.93035 | -149.11838 | 17240 ft | 427 kts | 115° |
| 2026-04-24 00:34 | 60.92069 | -149.06045 | 17832 ft | 430 kts | 115° |
| 2026-04-24 00:34 | 60.91102 | -149.00262 | 18310 ft | 433 kts | 115° |
| 2026-04-24 00:35 | 60.90117 | -148.94394 | 18794 ft | 437 kts | 115° |
| 2026-04-24 00:35 | 60.89133 | -148.88541 | 19341 ft | 439 kts | 115° |
| 2026-04-24 00:35 | 60.88126 | -148.82619 | 19732 ft | 446 kts | 115° |
| 2026-04-24 00:35 | 60.87094 | -148.76576 | 20122 ft | 452 kts | 115° |
| 2026-04-24 00:36 | 60.86058 | -148.70482 | 20614 ft | 455 kts | 115° |
| 2026-04-24 00:36 | 60.85016 | -148.64371 | 21061 ft | 459 kts | 115° |
| 2026-04-24 00:36 | 60.83962 | -148.58202 | 21555 ft | 461 kts | 115° |
| 2026-04-24 00:36 | 60.82906 | -148.52049 | 21889 ft | 467 kts | 115° |
| 2026-04-24 00:37 | 60.81820 | -148.45747 | 22325 ft | 470 kts | 115° |
| 2026-04-24 00:37 | 60.80739 | -148.39493 | 22836 ft | 472 kts | 115° |
| 2026-04-24 00:37 | 60.79624 | -148.33073 | 23145 ft | 477 kts | 116° |
| 2026-04-24 00:37 | 60.78508 | -148.26665 | 23496 ft | 482 kts | 116° |
| 2026-04-24 00:38 | 60.77381 | -148.20221 | 23946 ft | 482 kts | 116° |
| 2026-04-24 00:38 | 60.76253 | -148.13779 | 24352 ft | 485 kts | 116° |
| 2026-04-24 00:38 | 60.75116 | -148.07317 | 24726 ft | 488 kts | 117° |
| 2026-04-24 00:38 | 60.73947 | -148.00691 | 25051 ft | 493 kts | 117° |
| 2026-04-24 00:39 | 60.72800 | -147.94200 | 25607 ft | 491 kts | 117° |
| 2026-04-24 00:39 | 60.71638 | -147.87654 | 25855 ft | 496 kts | 117° |
| 2026-04-24 00:39 | 60.70446 | -147.80981 | 26021 ft | 503 kts | 117° |
| 2026-04-24 00:39 | 60.69251 | -147.74300 | 26381 ft | 506 kts | 116° |
| 2026-04-24 00:40 | 60.68017 | -147.67557 | 26668 ft | 509 kts | 117° |
| 2026-04-24 00:40 | 60.66772 | -147.60825 | 27010 ft | 511 kts | 117° |
| 2026-04-24 00:40 | 60.65533 | -147.54044 | 27433 ft | 512 kts | 117° |
| 2026-04-24 00:40 | 60.64315 | -147.47328 | 27834 ft | 513 kts | 118° |
| 2026-04-24 00:41 | 60.63079 | -147.40494 | 28333 ft | 511 kts | 117° |
| 2026-04-24 00:41 | 60.61856 | -147.33739 | 28895 ft | 509 kts | 119° |
| 2026-04-24 00:41 | 60.60643 | -147.27029 | 29582 ft | 502 kts | 119° |
| 2026-04-24 00:41 | 60.59439 | -147.20421 | 30026 ft | 501 kts | 119° |
| 2026-04-24 00:42 | 60.58210 | -147.13744 | 30257 ft | 503 kts | 120° |
| 2026-04-24 00:42 | 60.56976 | -147.07080 | 30636 ft | 503 kts | 119° |
| 2026-04-24 00:42 | 60.55735 | -147.00409 | 30988 ft | 503 kts | 119° |
| 2026-04-24 00:42 | 60.54499 | -146.93796 | 31374 ft | 502 kts | 119° |
| 2026-04-24 00:43 | 60.53262 | -146.87189 | 31723 ft | 501 kts | 120° |
| 2026-04-24 00:43 | 60.52029 | -146.80643 | 31927 ft | 504 kts | 120° |
| 2026-04-24 00:43 | 60.50760 | -146.73946 | 32030 ft | 509 kts | 119° |
| 2026-04-24 00:43 | 60.49475 | -146.67291 | 32178 ft | 511 kts | 120° |
| 2026-04-24 00:44 | 60.48248 | -146.60579 | 32469 ft | 516 kts | 117° |
| 2026-04-24 00:44 | 60.47191 | -146.53642 | 32789 ft | 519 kts | 113° |
| 2026-04-24 00:44 | 60.46299 | -146.46521 | 33068 ft | 523 kts | 109° |
| 2026-04-24 00:44 | 60.45539 | -146.39307 | 33288 ft | 526 kts | 108° |
| 2026-04-24 00:45 | 60.44107 | -146.24828 | 33302 ft | 526 kts | 109° |
| 2026-04-24 00:45 | 60.42603 | -146.10326 | 33329 ft | 529 kts | 109° |
| 2026-04-24 00:46 | 60.40966 | -145.95871 | 33388 ft | 529 kts | 109° |
| 2026-04-24 00:46 | 60.39275 | -145.81493 | 33407 ft | 528 kts | 109° |
| 2026-04-24 00:47 | 60.37559 | -145.67030 | 33418 ft | 529 kts | 109° |
| 2026-04-24 00:47 | 60.35861 | -145.52655 | 33419 ft | 528 kts | 109° |
| 2026-04-24 00:48 | 60.34152 | -145.38310 | 33420 ft | 530 kts | 109° |
| 2026-04-24 00:48 | 60.32408 | -145.23889 | 33407 ft | 525 kts | 109° |
| 2026-04-24 00:49 | 60.30668 | -145.09592 | 33365 ft | 528 kts | 109° |
| 2026-04-24 00:49 | 60.28909 | -144.95264 | 33381 ft | 526 kts | 109° |
| 2026-04-24 00:50 | 60.27149 | -144.81045 | 33360 ft | 528 kts | 109° |
| 2026-04-24 00:50 | 60.25365 | -144.66780 | 33346 ft | 527 kts | 108° |
| 2026-04-24 00:51 | 60.23680 | -144.52528 | 33331 ft | 522 kts | 110° |
| 2026-04-24 00:51 | 60.21820 | -144.38379 | 33335 ft | 528 kts | 109° |
| 2026-04-24 00:52 | 60.20067 | -144.24016 | 33653 ft | 529 kts | 111° |
| 2026-04-24 00:52 | 60.19134 | -144.16936 | 34036 ft | 526 kts | 109° |
| 2026-04-24 00:52 | 60.18218 | -144.09869 | 34250 ft | 527 kts | 109° |
| 2026-04-24 00:53 | 60.17275 | -144.02660 | 34494 ft | 528 kts | 110° |
| 2026-04-24 00:53 | 60.16334 | -143.95599 | 34709 ft | 529 kts | 110° |
| 2026-04-24 00:53 | 60.15323 | -143.88489 | 34911 ft | 528 kts | 110° |
| 2026-04-24 00:53 | 60.14315 | -143.81396 | 35094 ft | 529 kts | 110° |
| 2026-04-24 00:54 | 60.13343 | -143.74376 | 35348 ft | 527 kts | 109° |
| 2026-04-24 00:54 | 60.12373 | -143.67285 | 35364 ft | 527 kts | 109° |
| 2026-04-24 00:54 | 60.10455 | -143.53259 | 35376 ft | 523 kts | 109° |
| 2026-04-24 00:55 | 60.08570 | -143.39314 | 35387 ft | 521 kts | 109° |
| 2026-04-24 00:55 | 60.06655 | -143.25250 | 35385 ft | 523 kts | 109° |
| 2026-04-24 00:56 | 60.04741 | -143.11337 | 35385 ft | 522 kts | 109° |
| 2026-04-24 00:56 | 60.02802 | -142.97418 | 35398 ft | 521 kts | 109° |
| 2026-04-24 00:57 | 60.00837 | -142.83507 | 35407 ft | 522 kts | 109° |
| 2026-04-24 00:58 | 59.97870 | -142.62776 | 35415 ft | 521 kts | 110° |
| 2026-04-24 00:58 | 59.95877 | -142.48988 | 35425 ft | 517 kts | 109° |
| 2026-04-24 00:59 | 59.93852 | -142.35199 | 35427 ft | 518 kts | 110° |
| 2026-04-24 00:59 | 59.91856 | -142.21532 | 35425 ft | 517 kts | 110° |
| 2026-04-24 01:00 | 59.89831 | -142.07790 | 35434 ft | 516 kts | 110° |
| 2026-04-24 01:00 | 59.87803 | -141.94168 | 35439 ft | 515 kts | 109° |
| 2026-04-24 01:01 | 59.85759 | -141.80536 | 35450 ft | 515 kts | 110° |
| 2026-04-24 01:01 | 59.83712 | -141.66981 | 35455 ft | 515 kts | 109° |
| 2026-04-24 01:02 | 59.81646 | -141.53430 | 35463 ft | 514 kts | 109° |
| 2026-04-24 01:02 | 59.79548 | -141.39821 | 35460 ft | 517 kts | 110° |
| 2026-04-24 01:03 | 59.77437 | -141.26244 | 35457 ft | 514 kts | 110° |
| 2026-04-24 01:03 | 59.75328 | -141.12776 | 35459 ft | 515 kts | 110° |
| 2026-04-24 01:04 | 59.73206 | -140.99341 | 35462 ft | 515 kts | 110° |
| 2026-04-24 01:04 | 59.71063 | -140.85870 | 35459 ft | 512 kts | 110° |
| 2026-04-24 01:05 | 59.68902 | -140.72371 | 35456 ft | 513 kts | 110° |
| 2026-04-24 01:05 | 59.66737 | -140.58963 | 35426 ft | 513 kts | 110° |
| 2026-04-24 01:06 | 59.64567 | -140.45638 | 35448 ft | 513 kts | 110° |
| 2026-04-24 01:06 | 59.62390 | -140.32346 | 35467 ft | 511 kts | 110° |
| 2026-04-24 01:07 | 59.60195 | -140.19035 | 35447 ft | 512 kts | 110° |
| 2026-04-24 01:07 | 59.57980 | -140.05716 | 35461 ft | 510 kts | 110° |
| 2026-04-24 01:08 | 59.55778 | -139.92557 | 35460 ft | 508 kts | 110° |
| 2026-04-24 01:08 | 59.53565 | -139.79416 | 35495 ft | 507 kts | 110° |
| 2026-04-24 01:09 | 59.51214 | -139.66388 | 35502 ft | 505 kts | 114° |
| 2026-04-24 01:09 | 59.48235 | -139.53954 | 35500 ft | 503 kts | 120° |
| 2026-04-24 01:10 | 59.44893 | -139.41934 | 35491 ft | 501 kts | 121° |
| 2026-04-24 01:10 | 59.41510 | -139.30089 | 35466 ft | 500 kts | 122° |
| 2026-04-24 01:11 | 59.38129 | -139.18231 | 35440 ft | 499 kts | 122° |
| 2026-04-24 01:11 | 59.34759 | -139.06380 | 35427 ft | 499 kts | 121° |
| 2026-04-24 01:12 | 59.31413 | -138.94620 | 35423 ft | 497 kts | 121° |
| 2026-04-24 01:12 | 59.28056 | -138.82849 | 35432 ft | 498 kts | 121° |
| 2026-04-24 01:13 | 59.24671 | -138.71037 | 35443 ft | 498 kts | 121° |
| 2026-04-24 01:13 | 59.21313 | -138.59374 | 35448 ft | 498 kts | 121° |
| 2026-04-24 01:14 | 59.17918 | -138.47650 | 35451 ft | 496 kts | 121° |
| 2026-04-24 01:14 | 59.14537 | -138.36028 | 35438 ft | 494 kts | 121° |
| 2026-04-24 01:15 | 59.11144 | -138.24422 | 35435 ft | 493 kts | 121° |
| 2026-04-24 01:15 | 59.07746 | -138.12862 | 35431 ft | 496 kts | 121° |
| 2026-04-24 01:16 | 59.04322 | -138.01276 | 35409 ft | 493 kts | 121° |
| 2026-04-24 01:16 | 59.00923 | -137.89828 | 35391 ft | 493 kts | 121° |
| 2026-04-24 01:17 | 58.97507 | -137.78380 | 35345 ft | 492 kts | 121° |
| 2026-04-24 01:17 | 58.94078 | -137.66946 | 35331 ft | 493 kts | 121° |
| 2026-04-24 01:18 | 58.90623 | -137.55479 | 35302 ft | 493 kts | 121° |
| 2026-04-24 01:18 | 58.87185 | -137.44099 | 35128 ft | 491 kts | 121° |
| 2026-04-24 01:18 | 58.85477 | -137.38463 | 34605 ft | 488 kts | 121° |
| 2026-04-24 01:19 | 58.83781 | -137.32883 | 34065 ft | 484 kts | 122° |
| 2026-04-24 01:19 | 58.82062 | -137.27254 | 33245 ft | 486 kts | 122° |
| 2026-04-24 01:19 | 58.80341 | -137.21634 | 32384 ft | 488 kts | 122° |
| 2026-04-24 01:19 | 58.78630 | -137.16064 | 31570 ft | 489 kts | 121° |
| 2026-04-24 01:20 | 58.76904 | -137.10461 | 30789 ft | 488 kts | 121° |
| 2026-04-24 01:20 | 58.75160 | -137.04813 | 29820 ft | 492 kts | 121° |
| 2026-04-24 01:20 | 58.73409 | -136.99150 | 28908 ft | 495 kts | 121° |
| 2026-04-24 01:20 | 58.71663 | -136.93518 | 28050 ft | 494 kts | 121° |
| 2026-04-24 01:21 | 58.69931 | -136.87944 | 27663 ft | 485 kts | 121° |
| 2026-04-24 01:21 | 58.68198 | -136.82376 | 26978 ft | 482 kts | 121° |
| 2026-04-24 01:21 | 58.66508 | -136.76964 | 26172 ft | 477 kts | 121° |
| 2026-04-24 01:21 | 58.64816 | -136.71555 | 25334 ft | 473 kts | 121° |
| 2026-04-24 01:22 | 58.63123 | -136.66157 | 24622 ft | 466 kts | 121° |
| 2026-04-24 01:22 | 58.61487 | -136.60948 | 23883 ft | 461 kts | 121° |
| 2026-04-24 01:22 | 58.59833 | -136.55696 | 23064 ft | 457 kts | 121° |
| 2026-04-24 01:22 | 58.58221 | -136.50588 | 22332 ft | 452 kts | 121° |
| 2026-04-24 01:23 | 58.56603 | -136.45471 | 21539 ft | 449 kts | 122° |
| 2026-04-24 01:23 | 58.54995 | -136.40398 | 20833 ft | 443 kts | 122° |
| 2026-04-24 01:23 | 58.53399 | -136.35373 | 20063 ft | 440 kts | 122° |
| 2026-04-24 01:23 | 58.51821 | -136.30418 | 19347 ft | 435 kts | 123° |
| 2026-04-24 01:24 | 58.50269 | -136.25549 | 18538 ft | 432 kts | 123° |
| 2026-04-24 01:24 | 58.48724 | -136.20714 | 17845 ft | 427 kts | 122° |
| 2026-04-24 01:24 | 58.47201 | -136.15959 | 17184 ft | 421 kts | 123° |
| 2026-04-24 01:24 | 58.45668 | -136.11179 | 16427 ft | 417 kts | 123° |
| 2026-04-24 01:25 | 58.44170 | -136.06523 | 15734 ft | 412 kts | 122° |
| 2026-04-24 01:25 | 58.42681 | -136.01903 | 14931 ft | 411 kts | 123° |
| 2026-04-24 01:25 | 58.41211 | -135.97350 | 14254 ft | 405 kts | 123° |
| 2026-04-24 01:25 | 58.39741 | -135.92802 | 13531 ft | 402 kts | 123° |
| 2026-04-24 01:26 | 58.38284 | -135.88309 | 12917 ft | 395 kts | 123° |
| 2026-04-24 01:26 | 58.36976 | -135.83823 | 12464 ft | 385 kts | 115° |
| 2026-04-24 01:26 | 58.36160 | -135.79160 | 12106 ft | 372 kts | 98° |
| 2026-04-24 01:26 | 58.35965 | -135.74355 | 11790 ft | 358 kts | 88° |
| 2026-04-24 01:27 | 58.36010 | -135.69684 | 11471 ft | 346 kts | 85° |
| 2026-04-24 01:27 | 58.36113 | -135.65187 | 11112 ft | 338 kts | 85° |
| 2026-04-24 01:27 | 58.36200 | -135.60747 | 10479 ft | 341 kts | 85° |
| 2026-04-24 01:27 | 58.36250 | -135.56204 | 9716 ft | 346 kts | 86° |
| 2026-04-24 01:28 | 58.36266 | -135.51671 | 8986 ft | 349 kts | 87° |
| 2026-04-24 01:28 | 58.36259 | -135.47057 | 8440 ft | 344 kts | 88° |
| 2026-04-24 01:28 | 58.36245 | -135.42596 | 8020 ft | 337 kts | 88° |
| 2026-04-24 01:28 | 58.36230 | -135.38179 | 7619 ft | 329 kts | 89° |
| 2026-04-24 01:29 | 58.36219 | -135.33876 | 7203 ft | 321 kts | 89° |
| 2026-04-24 01:29 | 58.36208 | -135.29700 | 6859 ft | 313 kts | 89° |
| 2026-04-24 01:29 | 58.36195 | -135.25690 | 6689 ft | 298 kts | 89° |
| 2026-04-24 01:29 | 58.36183 | -135.21835 | 6603 ft | 281 kts | 89° |
| 2026-04-24 01:30 | 58.36169 | -135.18196 | 6395 ft | 271 kts | 88° |
| 2026-04-24 01:30 | 58.36156 | -135.14693 | 6094 ft | 259 kts | 89° |
| 2026-04-24 01:30 | 58.36147 | -135.11392 | 5919 ft | 245 kts | 88° |
| 2026-04-24 01:30 | 58.36136 | -135.08205 | 5694 ft | 235 kts | 88° |
| 2026-04-24 01:31 | 58.36120 | -135.05191 | 5483 ft | 223 kts | 89° |
| 2026-04-24 01:31 | 58.36111 | -135.02235 | 5018 ft | 225 kts | 89° |
| 2026-04-24 01:31 | 58.36114 | -134.99330 | 4637 ft | 216 kts | 89° |
| 2026-04-24 01:31 | 58.36103 | -134.96565 | 4288 ft | 202 kts | 90° |
| 2026-04-24 01:32 | 58.36089 | -134.94019 | 4082 ft | 183 kts | 90° |
| 2026-04-24 01:32 | 58.36091 | -134.91682 | 3776 ft | 172 kts | 90° |
| 2026-04-24 01:32 | 58.36091 | -134.89453 | 3536 ft | 165 kts | 90° |
| 2026-04-24 01:32 | 58.36084 | -134.87241 | 3311 ft | 168 kts | 90° |
| 2026-04-24 01:33 | 58.36065 | -134.85059 | 2965 ft | 164 kts | 90° |
| 2026-04-24 01:33 | 58.36035 | -134.82948 | 2757 ft | 159 kts | 90° |
| 2026-04-24 01:33 | 58.35996 | -134.80808 | 2594 ft | 164 kts | 90° |
| 2026-04-24 01:33 | 58.35958 | -134.78659 | 2280 ft | 160 kts | 90° |
| 2026-04-24 01:34 | 58.35943 | -134.76573 | 2007 ft | 156 kts | 89° |
| 2026-04-24 01:34 | 58.35945 | -134.74510 | 1741 ft | 156 kts | 88° |
| 2026-04-24 01:34 | 58.35944 | -134.72443 | 1531 ft | 154 kts | 89° |
| 2026-04-24 01:34 | 58.35931 | -134.70412 | 1283 ft | 157 kts | 89° |
| 2026-04-24 01:35 | 58.35917 | -134.68361 | 962 ft | 154 kts | 89° |
| 2026-04-24 01:35 | 58.35936 | -134.66313 | 761 ft | 153 kts | 87° |
| 2026-04-24 01:35 | 58.35976 | -134.64290 | 592 ft | 155 kts | 85° |
| 2026-04-24 01:35 | 58.36023 | -134.62251 | 339 ft | 155 kts | 90° |
| 2026-04-24 01:36 | 58.35865 | -134.60249 | 92 ft | 153 kts | 104° |
| 2026-04-24 01:36 | 58.35586 | -134.58287 | 78 ft | 148 kts | 104° |
| 2026-04-24 01:36 | 58.35306 | -134.56441 | 407 ft | 152 kts | 106° |
| 2026-04-24 01:36 | 58.34964 | -134.54481 | 736 ft | 160 kts | 114° |
| 2026-04-24 01:37 | 58.34225 | -134.52937 | 1057 ft | 160 kts | 152° |
| 2026-04-24 01:37 | 58.33156 | -134.52779 | 1390 ft | 161 kts | 205° |
| 2026-04-24 01:37 | 58.32511 | -134.54414 | 1486 ft | 168 kts | 266° |
| 2026-04-24 01:37 | 58.32697 | -134.56635 | 1471 ft | 169 kts | 284° |
| 2026-04-24 01:38 | 58.32956 | -134.58833 | 1428 ft | 171 kts | 283° |
| 2026-04-24 01:38 | 58.33215 | -134.61052 | 1391 ft | 171 kts | 283° |
| 2026-04-24 01:38 | 58.33556 | -134.63075 | 1239 ft | 156 kts | 304° |
| 2026-04-24 01:38 | 58.34383 | -134.64290 | 897 ft | 152 kts | 347° |
| 2026-04-24 01:39 | 58.35377 | -134.64066 | 636 ft | 148 kts | 30° |
| 2026-04-24 01:39 | 58.36032 | -134.62534 | 308 ft | 152 kts | 76° |
| 2026-04-24 01:39 | 58.35909 | -134.60603 | 95 ft | 150 kts | 104° |
| 2026-04-24 01:39 | 58.35652 | -134.58739 | 19 ft | 122 kts | 104° |
| 2026-04-24 01:40 | 58.35493 | -134.57606 | 19 ft | 54 kts | 104° |
| 2026-04-24 01:40 | 58.35464 | -134.57306 | 19 ft | 8 kts | 43° |
| 2026-04-24 01:40 | 58.35520 | -134.57268 | 19 ft | 10 kts | 13° |
| 2026-04-24 01:40 | 58.35563 | -134.57310 | 20 ft | 9 kts | 295° |
| 2026-04-24 01:41 | 58.35587 | -134.57474 | 20 ft | 14 kts | 284° |
| 2026-04-24 01:41 | 58.35616 | -134.57684 | 20 ft | 18 kts | 284° |
| 2026-04-24 01:41 | 58.35650 | -134.57921 | 21 ft | 17 kts | 284° |
| 2026-04-24 01:41 | 58.35680 | -134.58142 | 21 ft | 16 kts | 284° |
| 2026-04-24 01:42 | 58.35712 | -134.58293 | 20 ft | 8 kts | 339° |
| 2026-04-24 01:42 | 58.35760 | -134.58308 | 21 ft | 5 kts | 320° |
| 2026-04-24 01:42 | 58.35778 | -134.58369 | 21 ft | 4 kts | 298° |
| 2026-04-24 01:42 | 58.35804 | -134.58388 | 21 ft | 3 kts | 5° |
| 2026-04-24 01:43 | 58.35824 | -134.58377 | 21 ft | 2 kts | 19° |
| 2026-04-24 01:43 | 58.35831 | -134.58372 | 21 ft | 0 kts | 19° |